createdAt,value
2022-08-03T00:01:02.918Z,26.39
2022-08-03T00:03:27.321Z,26.23
2022-08-03T00:06:03.765Z,26.22
2022-08-03T00:08:28.022Z,26.21
2022-08-03T00:10:51.092Z,25.94
2022-08-03T00:13:14.223Z,25.86
2022-08-03T00:15:37.244Z,25.79
2022-08-03T00:18:00.289Z,25.59
2022-08-03T00:20:24.788Z,25.51
2022-08-03T00:22:47.802Z,25.48
2022-08-03T00:25:10.975Z,25.56
2022-08-03T00:27:33.986Z,25.60
2022-08-03T00:30:00.043Z,25.73
2022-08-03T00:32:24.153Z,25.90
2022-08-03T00:34:57.603Z,26.19
2022-08-03T00:37:22.910Z,26.29
2022-08-03T00:40:04.369Z,26.15
2022-08-03T00:42:28.702Z,26.25
2022-08-03T00:44:51.846Z,26.33
2022-08-03T00:47:14.791Z,26.47
2022-08-03T00:49:37.978Z,26.52
2022-08-03T00:52:01.018Z,26.44
2022-08-03T00:54:33.827Z,26.31
2022-08-03T00:57:00.010Z,26.20
2022-08-03T00:59:23.510Z,25.72
2022-08-03T01:01:46.659Z,25.74
2022-08-03T01:04:09.751Z,25.68
2022-08-03T01:06:34.234Z,25.68
2022-08-03T01:08:59.464Z,25.51
2022-08-03T01:11:26.169Z,25.41
2022-08-03T01:14:01.899Z,25.34
2022-08-03T01:16:35.873Z,25.43
2022-08-03T01:19:01.570Z,25.48
2022-08-03T01:21:26.789Z,25.23
2022-08-03T01:23:55.713Z,25.39
2022-08-03T01:26:24.473Z,25.72
2022-08-03T01:28:58.346Z,25.88
2022-08-03T01:31:23.507Z,25.91
2022-08-03T01:33:48.565Z,25.76
2022-08-03T01:36:12.966Z,25.98
2022-08-03T01:38:36.335Z,25.92
2022-08-03T01:40:59.378Z,26.12
2022-08-03T01:44:26.925Z,26.31
2022-08-03T01:46:06.741Z,26.38
2022-08-03T01:48:31.123Z,26.28
2022-08-03T01:50:54.148Z,26.36
2022-08-03T01:53:17.474Z,26.46
2022-08-03T01:55:40.519Z,26.48
2022-08-03T01:58:04.853Z,26.48
2022-08-03T02:00:29.448Z,26.33
2022-08-03T02:02:52.545Z,26.32
2022-08-03T02:05:17.041Z,26.42
2022-08-03T02:07:41.205Z,26.25
2022-08-03T02:10:04.943Z,25.88
2022-08-03T02:12:28.358Z,25.63
2022-08-03T02:14:51.810Z,25.79
2022-08-03T02:17:14.825Z,25.67
2022-08-03T02:19:38.157Z,25.49
2022-08-03T02:22:02.514Z,25.51
2022-08-03T02:24:25.670Z,25.48
2022-08-03T02:26:48.841Z,25.88
2022-08-03T02:29:12.928Z,25.82
2022-08-03T02:31:36.066Z,25.55
2022-08-03T02:34:00.363Z,25.71
2022-08-03T02:36:24.737Z,25.49
2022-08-03T02:38:50.504Z,25.44
2022-08-03T02:41:15.030Z,25.57
2022-08-03T02:43:39.192Z,25.54
2022-08-03T02:46:21.739Z,25.62
2022-08-03T02:48:45.914Z,25.80
2022-08-03T02:51:08.984Z,25.77
2022-08-03T02:53:32.032Z,25.68
2022-08-03T02:55:56.389Z,25.73
2022-08-03T02:58:19.804Z,25.36
2022-08-03T03:00:42.991Z,25.61
2022-08-03T03:03:06.257Z,25.94
2022-08-03T03:05:53.732Z,25.63
2022-08-03T03:08:18.816Z,25.36
2022-08-03T03:10:43.988Z,25.52
2022-08-03T03:13:08.462Z,25.81
2022-08-03T03:15:32.926Z,25.83
2022-08-03T03:17:55.995Z,25.48
2022-08-03T03:20:29.357Z,25.35
2022-08-03T03:22:53.398Z,25.53
2022-08-03T03:25:16.420Z,25.24
2022-08-03T03:27:39.645Z,25.22
2022-08-03T03:30:04.453Z,25.35
2022-08-03T03:32:27.957Z,25.42
2022-08-03T03:34:50.991Z,25.37
2022-08-03T03:37:14.237Z,25.24
2022-08-03T03:39:37.459Z,25.37
2022-08-03T03:42:01.168Z,25.57
2022-08-03T03:44:25.961Z,25.86
2022-08-03T03:46:50.479Z,25.84
2022-08-03T03:49:13.601Z,25.83
2022-08-03T03:51:36.754Z,26.05
2022-08-03T03:53:59.875Z,26.21
2022-08-03T03:56:22.919Z,26.12
2022-08-03T03:58:46.035Z,26.31
2022-08-03T04:01:09.965Z,26.35
2022-08-03T04:03:34.510Z,26.37
2022-08-03T04:06:14.629Z,26.45
2022-08-03T04:08:54.902Z,26.43
2022-08-03T04:11:19.271Z,26.50
2022-08-03T04:13:43.706Z,26.52
2022-08-03T04:16:06.723Z,26.52
2022-08-03T04:18:30.692Z,26.38
2022-08-03T04:20:55.087Z,26.15
2022-08-03T04:23:18.435Z,26.02
2022-08-03T04:25:41.448Z,25.94
2022-08-03T04:28:28.308Z,26.23
2022-08-03T04:30:49.030Z,26.18
2022-08-03T04:33:12.013Z,26.01
2022-08-03T04:36:01.731Z,26.01
2022-08-03T04:38:20.698Z,26.12
2022-08-03T04:40:44.117Z,26.19
2022-08-03T04:43:07.133Z,25.98
2022-08-03T04:45:30.282Z,25.89
2022-08-03T04:47:53.285Z,25.85
2022-08-03T04:50:21.005Z,25.75
2022-08-03T04:53:00.142Z,26.15
2022-08-03T04:55:28.712Z,26.32
2022-08-03T04:57:51.734Z,26.25
2022-08-03T05:00:15.357Z,26.38
2022-08-03T05:02:38.418Z,26.20
2022-08-03T05:05:01.536Z,26.15
2022-08-03T05:07:24.973Z,26.09
2022-08-03T05:09:50.652Z,26.18
2022-08-03T05:12:17.730Z,26.12
2022-08-03T05:14:40.877Z,26.25
2022-08-03T05:17:03.977Z,26.24
2022-08-03T05:19:27.014Z,26.28
2022-08-03T05:21:52.030Z,26.26
2022-08-03T05:24:15.782Z,26.01
2022-08-03T05:26:38.851Z,25.94
2022-08-03T05:29:03.258Z,26.16
2022-08-03T05:31:26.254Z,26.04
2022-08-03T05:33:49.770Z,26.13
2022-08-03T05:36:12.778Z,26.05
2022-08-03T05:38:36.407Z,26.08
2022-08-03T05:41:22.856Z,26.20
2022-08-03T05:43:42.422Z,26.24
2022-08-03T05:46:12.073Z,26.30
2022-08-03T05:48:36.165Z,26.32
2022-08-03T05:50:59.191Z,26.35
2022-08-03T05:53:22.230Z,26.42
2022-08-03T05:55:45.223Z,26.33
2022-08-03T05:58:08.329Z,26.29
2022-08-03T06:00:34.418Z,26.23
2022-08-03T06:02:58.832Z,26.17
2022-08-03T06:05:21.817Z,26.16
2022-08-03T06:07:44.868Z,26.24
2022-08-03T06:10:35.573Z,26.18
2022-08-03T06:12:52.666Z,26.26
2022-08-03T06:15:16.678Z,26.29
2022-08-03T06:17:48.867Z,26.36
2022-08-03T06:20:13.802Z,26.40
2022-08-03T06:22:37.072Z,26.39
2022-08-03T06:25:13.746Z,26.23
2022-08-03T06:27:40.082Z,26.22
2022-08-03T06:30:03.151Z,26.17
2022-08-03T06:32:26.265Z,26.29
2022-08-03T06:34:49.267Z,26.18
2022-08-03T06:37:13.659Z,26.21
2022-08-03T06:39:36.665Z,26.26
2022-08-03T06:41:59.687Z,26.25
2022-08-03T06:44:22.769Z,26.24
2022-08-03T06:46:45.806Z,26.19
2022-08-03T06:49:08.969Z,26.26
2022-08-03T06:52:05.110Z,26.28
2022-08-03T06:54:16.710Z,26.37
2022-08-03T06:56:39.769Z,26.37
2022-08-03T06:59:02.874Z,26.37
2022-08-03T07:01:25.942Z,26.31
2022-08-03T07:03:52.568Z,26.42
2022-08-03T07:06:15.713Z,26.51
2022-08-03T07:08:38.813Z,26.50
2022-08-03T07:11:03.256Z,26.50
2022-08-03T07:13:27.443Z,26.53
2022-08-03T07:15:55.259Z,26.53
2022-08-03T07:18:29.601Z,26.54
2022-08-03T07:20:53.292Z,26.52
2022-08-03T07:23:19.306Z,26.59
2022-08-03T07:25:42.500Z,26.60
2022-08-03T07:28:08.344Z,26.66
2022-08-03T07:30:31.392Z,26.73
2022-08-03T07:32:54.524Z,26.70
2022-08-03T07:35:24.402Z,26.65
2022-08-03T07:37:54.957Z,26.61
2022-08-03T07:40:18.431Z,26.53
2022-08-03T07:42:41.454Z,26.58
2022-08-03T07:45:06.350Z,26.66
2022-08-03T07:47:34.914Z,26.74
2022-08-03T07:49:58.954Z,26.80
2022-08-03T07:52:39.488Z,26.83
2022-08-03T07:55:02.612Z,26.83
2022-08-03T07:57:25.621Z,26.81
2022-08-03T07:59:56.800Z,26.83
2022-08-03T08:02:36.417Z,26.81
2022-08-03T08:05:04.967Z,26.82
2022-08-03T08:07:28.726Z,26.85
2022-08-03T08:09:51.810Z,26.87
2022-08-03T08:12:15.345Z,26.90
2022-08-03T08:14:39.030Z,26.93
2022-08-03T08:17:05.637Z,26.95
2022-08-03T08:19:31.702Z,26.95
2022-08-03T08:22:02.518Z,26.91
2022-08-03T08:24:26.063Z,26.96
2022-08-03T08:26:49.312Z,27.02
2022-08-03T08:29:12.462Z,26.99
2022-08-03T08:31:35.588Z,26.96
2022-08-03T08:34:04.037Z,26.98
2022-08-03T08:36:29.128Z,26.99
2022-08-03T08:38:52.177Z,27.00
2022-08-03T08:41:15.555Z,27.05
2022-08-03T08:43:38.620Z,27.06
2022-08-03T08:46:01.707Z,27.11
2022-08-03T08:48:25.876Z,27.14
2022-08-03T08:50:48.864Z,27.11
2022-08-03T08:53:18.222Z,27.09
2022-08-03T08:55:58.789Z,27.14
2022-08-03T08:58:23.090Z,27.15
2022-08-03T09:00:46.169Z,27.18
2022-08-03T09:03:09.393Z,27.22
2022-08-03T09:05:55.052Z,27.21
2022-08-03T09:08:17.288Z,27.17
2022-08-03T09:10:40.435Z,27.11
2022-08-03T09:13:03.478Z,27.13
2022-08-03T09:15:26.969Z,27.16
2022-08-03T09:17:51.207Z,27.16
2022-08-03T09:20:14.643Z,27.18
2022-08-03T09:22:37.654Z,27.20
2022-08-03T09:25:23.508Z,27.20
2022-08-03T09:27:46.567Z,27.21
2022-08-03T09:30:32.219Z,27.20
2022-08-03T09:33:01.690Z,27.24
2022-08-03T09:35:51.696Z,27.25
2022-08-03T09:38:12.601Z,27.26
2022-08-03T09:40:38.669Z,27.25
2022-08-03T09:43:01.818Z,27.26
2022-08-03T09:45:27.970Z,27.30
2022-08-03T09:47:51.078Z,27.29
2022-08-03T09:50:14.125Z,27.31
2022-08-03T09:52:49.333Z,27.33
2022-08-03T09:56:32.737Z,27.38
2022-08-03T09:58:06.482Z,27.38
2022-08-03T10:00:29.646Z,27.42
2022-08-03T10:02:52.934Z,27.48
2022-08-03T10:05:19.687Z,27.49
2022-08-03T10:07:46.182Z,27.55
2022-08-03T10:10:30.821Z,27.57
2022-08-03T10:12:53.736Z,27.57
2022-08-03T10:16:21.969Z,27.57
2022-08-03T10:18:01.151Z,27.59
2022-08-03T10:20:24.266Z,27.59
2022-08-03T10:22:47.298Z,27.59
2022-08-03T10:25:10.861Z,27.66
2022-08-03T10:27:37.999Z,27.66
2022-08-03T10:30:03.014Z,27.65
2022-08-03T10:32:29.389Z,27.66
2022-08-03T10:35:00.050Z,27.66
2022-08-03T10:37:23.453Z,27.63
2022-08-03T10:39:54.419Z,27.65
2022-08-03T10:42:17.528Z,27.66
2022-08-03T10:44:41.309Z,27.63
2022-08-03T10:47:04.338Z,27.62
2022-08-03T10:49:34.077Z,27.63
2022-08-03T10:51:58.488Z,27.60
2022-08-03T10:54:59.489Z,27.59
2022-08-03T10:57:38.028Z,27.56
2022-08-03T11:00:03.366Z,27.53
2022-08-03T11:02:41.522Z,27.56
2022-08-03T11:05:19.419Z,27.54
2022-08-03T11:07:45.533Z,27.54
2022-08-03T11:10:30.578Z,27.50
2022-08-03T11:12:53.853Z,27.48
2022-08-03T11:15:16.872Z,27.45
2022-08-03T11:17:46.903Z,27.36
2022-08-03T11:20:19.228Z,27.32
2022-08-03T11:22:54.607Z,27.34
2022-08-03T11:25:54.230Z,27.35
2022-08-03T11:28:15.727Z,27.36
2022-08-03T11:30:38.820Z,27.36
2022-08-03T11:33:02.035Z,27.42
2022-08-03T11:35:25.376Z,27.39
2022-08-03T11:38:08.907Z,27.42
2022-08-03T11:40:35.611Z,27.40
2022-08-03T11:42:58.666Z,27.37
2022-08-03T11:45:21.670Z,27.28
2022-08-03T11:47:51.119Z,27.24
2022-08-03T11:50:14.432Z,27.25
2022-08-03T11:52:38.580Z,27.23
2022-08-03T11:55:03.114Z,27.25
2022-08-03T11:59:01.191Z,27.30
2022-08-03T12:00:23.434Z,27.28
2022-08-03T12:02:55.550Z,27.22
2022-08-03T12:05:19.098Z,27.22
2022-08-03T12:08:03.084Z,27.24
2022-08-03T12:10:30.526Z,27.27
2022-08-03T12:12:56.118Z,27.28
2022-08-03T12:15:19.207Z,27.27
2022-08-03T12:17:42.286Z,27.29
2022-08-03T12:20:06.107Z,27.26
2022-08-03T12:22:32.534Z,27.23
2022-08-03T12:24:55.682Z,27.23
2022-08-03T12:27:26.598Z,27.27
2022-08-03T12:29:58.389Z,27.24
2022-08-03T12:32:21.934Z,27.23
2022-08-03T12:34:48.214Z,27.22
2022-08-03T12:37:22.301Z,27.20
2022-08-03T12:40:02.090Z,27.20
2022-08-03T12:42:32.593Z,27.21
2022-08-03T12:44:56.551Z,27.24
2022-08-03T12:47:19.820Z,27.19
2022-08-03T12:49:46.268Z,27.20
2022-08-03T12:52:10.527Z,27.23
2022-08-03T12:54:36.008Z,27.24
2022-08-03T12:56:59.475Z,27.26
2022-08-03T12:59:32.227Z,27.29
2022-08-03T13:01:58.255Z,27.21
2022-08-03T13:04:28.408Z,27.19
2022-08-03T13:06:57.986Z,27.16
2022-08-03T13:09:26.538Z,27.18
2022-08-03T13:12:01.846Z,27.22
2022-08-03T13:14:27.043Z,27.24
2022-08-03T13:16:50.107Z,27.22
2022-08-03T13:19:15.584Z,27.22
2022-08-03T13:22:01.659Z,27.23
2022-08-03T13:24:22.274Z,27.23
2022-08-03T13:26:45.282Z,27.18
2022-08-03T13:29:08.406Z,27.23
2022-08-03T13:31:32.839Z,27.22
2022-08-03T13:33:55.950Z,27.22
2022-08-03T13:36:18.931Z,27.21
2022-08-03T13:38:42.046Z,27.21
2022-08-03T13:41:05.722Z,27.20
2022-08-03T13:43:29.006Z,27.20
2022-08-03T13:45:56.523Z,27.21
2022-08-03T13:48:37.690Z,27.20
2022-08-03T13:51:05.318Z,27.18
2022-08-03T13:53:35.062Z,27.19
2022-08-03T13:55:58.122Z,27.27
2022-08-03T13:58:21.113Z,27.28
2022-08-03T14:00:44.240Z,27.30
2022-08-03T14:03:13.723Z,27.30
2022-08-03T14:05:39.388Z,27.31
2022-08-03T14:08:04.387Z,27.32
2022-08-03T14:10:28.062Z,27.29
2022-08-03T14:12:51.178Z,27.30
2022-08-03T14:15:14.614Z,27.32
2022-08-03T14:17:49.712Z,27.29
2022-08-03T14:20:38.959Z,27.28
2022-08-03T14:22:59.169Z,27.29
2022-08-03T14:25:22.201Z,27.28
2022-08-03T14:27:45.689Z,27.30
2022-08-03T14:30:09.215Z,27.31
2022-08-03T14:32:32.304Z,27.30
2022-08-03T14:34:55.307Z,27.29
2022-08-03T14:37:18.681Z,27.32
2022-08-03T14:39:59.954Z,27.32
2022-08-03T14:42:23.796Z,27.35
2022-08-03T14:44:46.785Z,27.34
2022-08-03T14:47:09.913Z,27.34
2022-08-03T14:50:38.923Z,27.33
2022-08-03T14:52:16.116Z,27.27
2022-08-03T14:54:39.111Z,27.30
2022-08-03T14:57:03.593Z,27.25
2022-08-03T14:59:26.674Z,27.28
2022-08-03T15:02:04.244Z,27.26
2022-08-03T15:04:29.646Z,27.23
2022-08-03T15:06:52.659Z,27.22
2022-08-03T15:09:23.641Z,27.24
2022-08-03T15:11:47.165Z,27.24
2022-08-03T15:14:13.575Z,27.24
2022-08-03T15:16:38.022Z,27.26
2022-08-03T15:19:01.018Z,27.24
2022-08-03T15:21:46.627Z,27.21
2022-08-03T15:24:07.277Z,27.18
2022-08-03T15:26:36.454Z,27.22
2022-08-03T15:29:02.750Z,27.20
2022-08-03T15:31:27.123Z,27.22
2022-08-03T15:33:50.781Z,27.24
2022-08-03T15:36:13.837Z,27.23
2022-08-03T15:38:36.883Z,27.23
2022-08-03T15:41:00.205Z,27.24
2022-08-03T15:43:23.309Z,27.25
2022-08-03T15:45:46.390Z,27.24
2022-08-03T15:48:10.878Z,27.24
2022-08-03T15:50:33.922Z,27.26
2022-08-03T15:52:57.004Z,27.23
2022-08-03T15:55:20.122Z,27.23
2022-08-03T15:59:03.204Z,27.23
2022-08-03T16:00:33.456Z,27.25
2022-08-03T16:02:57.534Z,27.26
2022-08-03T16:05:21.898Z,27.24
2022-08-03T16:08:03.642Z,27.24
2022-08-03T16:10:30.425Z,27.15
2022-08-03T16:12:53.438Z,27.22
2022-08-03T16:15:16.458Z,27.23
2022-08-03T16:17:39.532Z,27.23
2022-08-03T16:20:07.478Z,27.22
2022-08-03T16:22:35.242Z,27.22
2022-08-03T16:24:58.310Z,27.23
2022-08-03T16:27:37.657Z,27.25
2022-08-03T16:30:05.016Z,27.28
2022-08-03T16:32:28.038Z,27.26
2022-08-03T16:34:51.056Z,27.26
2022-08-03T16:37:36.925Z,27.26
2022-08-03T16:39:58.665Z,27.27
2022-08-03T16:42:21.711Z,27.30
2022-08-03T16:44:44.812Z,27.34
2022-08-03T16:47:07.976Z,27.35
2022-08-03T16:49:55.251Z,27.32
2022-08-03T16:52:19.538Z,27.32
2022-08-03T16:54:52.625Z,27.33
2022-08-03T16:57:29.756Z,27.39
2022-08-03T17:00:00.987Z,27.18
2022-08-03T17:02:26.198Z,27.34
2022-08-03T17:04:50.199Z,27.30
2022-08-03T17:07:13.358Z,27.32
2022-08-03T17:09:38.286Z,27.31
2022-08-03T17:12:01.655Z,27.29
2022-08-03T17:14:28.399Z,27.28
2022-08-03T17:16:54.085Z,27.30
2022-08-03T17:19:17.720Z,27.31
2022-08-03T17:21:41.917Z,27.31
2022-08-03T17:24:19.748Z,27.32
2022-08-03T17:26:43.597Z,27.21
2022-08-03T17:29:12.528Z,27.31
2022-08-03T17:31:49.605Z,27.08
2022-08-03T17:34:13.296Z,27.26
2022-08-03T17:37:02.587Z,27.32
2022-08-03T17:39:35.765Z,27.30
2022-08-03T17:42:05.394Z,27.29
2022-08-03T17:44:48.467Z,27.29
2022-08-03T17:47:13.430Z,27.29
2022-08-03T17:49:42.262Z,27.29
2022-08-03T17:52:06.687Z,27.28
2022-08-03T17:54:36.929Z,27.30
2022-08-03T17:57:22.369Z,27.32
2022-08-03T17:59:52.710Z,27.32
2022-08-03T18:02:47.642Z,27.05
2022-08-03T18:05:16.458Z,26.82
2022-08-03T18:07:41.576Z,26.77
2022-08-03T18:10:11.449Z,26.72
2022-08-03T18:12:41.683Z,26.54
2022-08-03T18:15:08.609Z,26.29
2022-08-03T18:17:58.273Z,26.23
2022-08-03T18:20:32.671Z,26.26
2022-08-03T18:23:05.002Z,26.27
2022-08-03T18:25:43.001Z,26.21
2022-08-03T18:28:11.818Z,26.19
2022-08-03T18:30:38.880Z,26.24
2022-08-03T18:34:18.878Z,26.26
2022-08-03T18:36:02.389Z,26.02
2022-08-03T18:38:26.465Z,26.09
2022-08-03T18:40:49.738Z,25.99
2022-08-03T18:43:12.760Z,25.86
2022-08-03T18:45:56.132Z,25.86
2022-08-03T18:48:22.514Z,25.86
2022-08-03T18:50:50.867Z,25.85
2022-08-03T18:53:16.569Z,25.88
2022-08-03T18:55:52.220Z,25.91
2022-08-03T18:58:26.681Z,25.91
2022-08-03T19:00:54.749Z,25.78
2022-08-03T19:03:23.099Z,25.81
2022-08-03T19:05:56.558Z,25.89
2022-08-03T19:08:30.731Z,26.09
2022-08-03T19:10:57.942Z,26.31
2022-08-03T19:13:30.767Z,26.42
2022-08-03T19:15:54.186Z,26.31
2022-08-03T19:18:17.434Z,26.05
2022-08-03T19:20:42.659Z,26.08
2022-08-03T19:23:11.226Z,25.89
2022-08-03T19:25:35.340Z,25.88
2022-08-03T19:27:58.812Z,25.84
2022-08-03T19:30:40.452Z,25.81
2022-08-03T19:33:03.866Z,25.71
2022-08-03T19:35:51.754Z,25.67
2022-08-03T19:38:13.418Z,25.67
2022-08-03T19:40:38.293Z,25.70
2022-08-03T19:43:07.151Z,25.54
2022-08-03T19:46:04.507Z,25.60
2022-08-03T19:48:18.997Z,25.66
2022-08-03T19:50:45.218Z,25.62
2022-08-03T19:53:10.222Z,25.52
2022-08-03T19:55:37.746Z,25.70
2022-08-03T19:58:02.504Z,25.65
2022-08-03T20:03:18.238Z,25.81
2022-08-03T20:05:52.337Z,25.75
2022-08-03T20:08:17.383Z,25.67
2022-08-03T20:10:45.099Z,25.55
2022-08-03T20:13:11.035Z,25.50
2022-08-03T20:15:42.377Z,25.43
2022-08-03T20:18:05.447Z,25.45
2022-08-03T20:20:39.797Z,25.71
2022-08-03T20:23:06.955Z,25.59
2022-08-03T20:25:37.636Z,25.38
2022-08-03T20:28:05.959Z,25.45
2022-08-03T20:30:31.354Z,25.32
2022-08-03T20:32:54.575Z,25.34
2022-08-03T20:35:17.626Z,25.48
2022-08-03T20:37:40.766Z,25.52
2022-08-03T20:40:05.978Z,25.34
2022-08-03T20:42:29.274Z,25.39
2022-08-03T20:45:05.695Z,25.42
2022-08-03T20:47:29.963Z,25.49
2022-08-03T20:49:53.576Z,25.49
2022-08-03T20:52:18.524Z,25.56
2022-08-03T20:54:42.267Z,25.59
2022-08-03T20:57:09.548Z,25.62
2022-08-03T20:59:47.136Z,25.39
2022-08-03T21:02:11.986Z,25.48
2022-08-03T21:04:43.602Z,25.33
2022-08-03T21:07:16.712Z,25.48
2022-08-03T21:12:37.302Z,25.57
2022-08-03T21:13:08.101Z,25.69
2022-08-03T21:13:10.710Z,25.54
2022-08-03T21:15:05.345Z,25.61
2022-08-03T21:17:41.304Z,25.72
2022-08-03T21:20:07.459Z,25.59
2022-08-03T21:22:30.883Z,25.58
2022-08-03T21:24:54.467Z,25.77
2022-08-03T21:27:19.156Z,25.56
2022-08-03T21:29:52.912Z,25.61
2022-08-03T21:32:26.469Z,25.64
2022-08-03T21:34:57.876Z,25.59
2022-08-03T21:37:21.113Z,25.59
2022-08-03T21:39:50.812Z,25.54
2022-08-03T21:42:14.218Z,25.49
2022-08-03T21:44:37.295Z,25.50
2022-08-03T21:47:00.389Z,25.38
2022-08-03T21:50:04.884Z,25.45
2022-08-03T21:52:07.930Z,25.62
2022-08-03T21:54:32.398Z,25.60
2022-08-03T21:56:55.443Z,25.51
2022-08-03T21:59:19.025Z,25.51
2022-08-03T22:01:42.163Z,25.39
2022-08-03T22:04:06.925Z,25.27
2022-08-03T22:06:30.235Z,25.36
2022-08-03T22:08:54.696Z,25.32
2022-08-03T22:11:17.810Z,25.59
2022-08-03T22:13:44.325Z,25.66
2022-08-03T22:16:07.727Z,25.39
2022-08-03T22:18:30.782Z,25.37
2022-08-03T22:20:53.885Z,25.55
2022-08-03T22:23:20.994Z,25.64
2022-08-03T22:25:45.838Z,25.62
2022-08-03T22:28:09.446Z,25.63
2022-08-03T22:30:33.236Z,25.71
2022-08-03T22:32:57.712Z,25.63
2022-08-03T22:35:21.583Z,25.60
2022-08-03T22:37:44.721Z,25.61
2022-08-03T22:40:12.145Z,25.73
2022-08-03T22:42:36.621Z,25.74
2022-08-03T22:44:59.680Z,25.65
2022-08-03T22:47:23.244Z,25.60
2022-08-03T22:49:46.754Z,25.79
2022-08-03T22:52:30.154Z,25.79
2022-08-03T22:54:53.290Z,25.39
2022-08-03T22:57:16.300Z,25.31
2022-08-03T22:59:42.126Z,25.38
2022-08-03T23:02:20.517Z,25.33
2022-08-03T23:04:45.247Z,25.46
2022-08-03T23:07:09.279Z,25.48
2022-08-03T23:09:32.546Z,25.23
2022-08-03T23:11:55.983Z,25.13
2022-08-03T23:14:19.749Z,25.15
2022-08-03T23:16:44.756Z,25.02
2022-08-03T23:19:17.125Z,24.94
2022-08-03T23:22:00.154Z,24.93
2022-08-03T23:24:25.333Z,24.89
2022-08-03T23:26:52.790Z,24.94
2022-08-03T23:29:15.829Z,24.90
2022-08-03T23:31:38.997Z,24.97
2022-08-03T23:34:24.313Z,24.79
2022-08-03T23:36:48.736Z,24.93
2022-08-03T23:39:11.884Z,24.75
2022-08-03T23:41:34.917Z,24.69
2022-08-03T23:43:57.963Z,24.77
2022-08-03T23:46:21.173Z,24.73
2022-08-03T23:48:44.250Z,24.74
2022-08-03T23:51:10.846Z,24.75
2022-08-03T23:53:39.769Z,24.84
2022-08-03T23:56:11.645Z,24.87
2022-08-03T23:58:39.530Z,24.90
